createdAt,value
2022-11-19T00:00:13.246Z,10.07
2022-11-19T00:03:16.131Z,11.77
2022-11-19T00:06:20.177Z,7.40
2022-11-19T00:09:36.495Z,6.63
2022-11-19T00:12:56.584Z,7.97
2022-11-19T00:16:07.549Z,8.93
2022-11-19T00:19:12.900Z,11.55
2022-11-19T00:22:29.770Z,10.23
2022-11-19T00:25:31.547Z,11.48
2022-11-19T00:28:34.055Z,9.68
2022-11-19T00:31:35.750Z,8.88
2022-11-19T00:34:37.620Z,12.10
2022-11-19T00:37:39.897Z,10.40
2022-11-19T00:40:42.427Z,15.30
2022-11-19T00:43:47.164Z,7.95
2022-11-19T00:46:49.095Z,11.98
2022-11-19T00:49:50.864Z,9.93
2022-11-19T00:52:52.615Z,14.65
2022-11-19T00:55:54.827Z,8.30
2022-11-19T00:58:56.779Z,12.63
2022-11-19T01:01:58.569Z,7.43
2022-11-19T01:05:00.325Z,8.30
2022-11-19T01:08:02.080Z,10.05
2022-11-19T01:11:12.394Z,7.95
2022-11-19T01:14:14.287Z,10.65
2022-11-19T01:17:16.023Z,8.85
2022-11-19T01:20:17.825Z,10.05
2022-11-19T01:23:19.945Z,7.18
2022-11-19T01:26:22.002Z,8.65
2022-11-19T01:29:23.826Z,8.38
2022-11-19T01:32:25.690Z,4.88
2022-11-19T01:35:27.420Z,14.35
2022-11-19T01:38:29.761Z,8.15
2022-11-19T01:41:32.504Z,9.55
2022-11-19T01:45:03.490Z,8.23
2022-11-19T01:48:14.580Z,8.77
2022-11-19T01:51:20.264Z,7.70
2022-11-19T01:54:26.643Z,9.75
2022-11-19T01:57:28.467Z,9.03
2022-11-19T02:00:30.331Z,8.45
2022-11-19T02:03:34.349Z,7.13
2022-11-19T02:06:36.137Z,7.05
2022-11-19T02:09:38.317Z,5.10
2022-11-19T02:13:08.751Z,10.65
2022-11-19T02:16:32.029Z,11.20
2022-11-19T02:20:07.881Z,9.73
2022-11-19T02:23:44.832Z,10.90
2022-11-19T02:26:59.880Z,9.55
2022-11-19T02:30:22.946Z,8.40
2022-11-19T02:33:52.481Z,4.57
2022-11-19T02:37:14.250Z,8.05
2022-11-19T02:40:29.470Z,10.55
2022-11-19T02:43:36.410Z,12.13
2022-11-19T02:46:38.506Z,10.25
2022-11-19T02:49:44.140Z,8.07
2022-11-19T02:52:46.580Z,8.05
2022-11-19T02:56:08.286Z,11.93
2022-11-19T02:59:28.625Z,6.63
2022-11-19T03:02:53.593Z,8.80
2022-11-19T03:06:06.269Z,8.98
2022-11-19T03:09:08.120Z,8.93
2022-11-19T03:12:29.584Z,8.65
2022-11-19T03:16:01.148Z,8.73
2022-11-19T03:19:09.033Z,7.95
2022-11-19T03:22:35.097Z,10.73
2022-11-19T03:25:50.961Z,6.63
2022-11-19T03:28:53.871Z,8.82
2022-11-19T03:32:07.809Z,12.35
2022-11-19T03:35:14.716Z,11.98
2022-11-19T03:38:27.098Z,10.35
2022-11-19T03:41:29.838Z,10.25
2022-11-19T03:44:40.148Z,11.23
2022-11-19T03:47:42.424Z,7.90
2022-11-19T03:51:00.260Z,13.45
2022-11-19T03:54:02.105Z,15.43
2022-11-19T03:57:06.052Z,14.55
2022-11-19T04:00:09.705Z,11.90
2022-11-19T04:03:17.165Z,12.35
2022-11-19T04:06:19.109Z,8.32
2022-11-19T04:09:21.343Z,15.65
2022-11-19T04:12:25.302Z,7.22
2022-11-19T04:15:27.371Z,7.82
2022-11-19T04:18:29.228Z,10.35
2022-11-19T04:21:31.262Z,9.65
2022-11-19T04:24:33.222Z,10.52
2022-11-19T04:27:35.008Z,10.93
2022-11-19T04:30:36.985Z,11.40
2022-11-19T04:33:38.794Z,9.45
2022-11-19T04:36:42.273Z,14.02
2022-11-19T04:39:44.033Z,12.35
2022-11-19T04:42:45.757Z,11.60
2022-11-19T04:45:47.540Z,6.68
2022-11-19T04:48:49.280Z,7.03
2022-11-19T04:51:53.651Z,8.75
2022-11-19T04:54:55.489Z,9.57
2022-11-19T04:57:57.676Z,12.13
2022-11-19T05:00:59.512Z,9.20
2022-11-19T05:04:02.756Z,14.20
2022-11-19T05:07:04.812Z,13.77
2022-11-19T05:10:07.188Z,7.13
2022-11-19T05:13:08.973Z,7.53
2022-11-19T05:16:10.939Z,9.02
2022-11-19T05:19:12.727Z,10.00
2022-11-19T05:22:14.944Z,8.65
2022-11-19T05:25:17.599Z,5.85
2022-11-19T05:28:24.818Z,6.65
2022-11-19T05:31:34.850Z,4.25
2022-11-19T05:34:36.730Z,5.28
2022-11-19T05:37:38.606Z,4.93
2022-11-19T05:40:40.425Z,6.65
2022-11-19T05:43:42.089Z,20.58
2022-11-19T05:46:44.264Z,13.65
2022-11-19T05:49:46.577Z,8.80
2022-11-19T05:52:49.237Z,8.70
2022-11-19T05:55:51.201Z,7.35
2022-11-19T05:58:57.106Z,8.57
2022-11-19T06:01:59.028Z,8.70
2022-11-19T06:05:01.141Z,12.45
2022-11-19T06:08:03.297Z,8.15
2022-11-19T06:11:06.045Z,12.05
2022-11-19T06:14:08.528Z,9.93
2022-11-19T06:17:13.316Z,6.72
2022-11-19T06:20:20.632Z,14.90
2022-11-19T06:23:25.184Z,11.40
2022-11-19T06:26:30.403Z,8.23
2022-11-19T06:29:35.029Z,7.07
2022-11-19T06:32:52.330Z,10.38
2022-11-19T06:35:55.650Z,6.30
2022-11-19T06:38:57.510Z,11.88
2022-11-19T06:42:19.269Z,8.77
2022-11-19T06:45:21.010Z,5.97
2022-11-19T06:48:23.025Z,14.52
2022-11-19T06:51:24.964Z,8.80
2022-11-19T06:54:27.627Z,11.98
2022-11-19T06:57:30.134Z,11.23
2022-11-19T07:00:32.664Z,12.65
2022-11-19T07:03:35.881Z,8.48
2022-11-19T07:06:37.689Z,6.75
2022-11-19T07:09:41.956Z,6.18
2022-11-19T07:12:43.825Z,8.15
2022-11-19T07:15:45.803Z,6.20
2022-11-19T07:18:47.846Z,10.25
2022-11-19T07:21:49.744Z,7.35
2022-11-19T07:24:51.643Z,9.02
2022-11-19T07:27:53.490Z,8.55
2022-11-19T07:30:56.262Z,6.20
2022-11-19T07:33:58.183Z,11.00
2022-11-19T07:37:00.262Z,10.93
2022-11-19T07:40:03.365Z,7.95
2022-11-19T07:43:05.138Z,15.75
2022-11-19T07:46:09.153Z,10.70
2022-11-19T07:49:11.659Z,7.57
2022-11-19T07:52:13.522Z,6.63
2022-11-19T07:55:16.091Z,8.50
2022-11-19T07:58:18.136Z,15.18
2022-11-19T08:01:22.513Z,6.65
2022-11-19T08:04:24.404Z,6.25
2022-11-19T08:07:26.681Z,6.97
2022-11-19T08:10:31.923Z,11.32
2022-11-19T08:13:34.811Z,10.27
2022-11-19T08:16:55.314Z,8.88
2022-11-19T08:19:57.220Z,7.00
2022-11-19T08:22:59.269Z,11.18
2022-11-19T08:26:01.191Z,6.70
2022-11-19T08:29:03.433Z,9.18
2022-11-19T08:32:05.681Z,11.82
2022-11-19T08:35:08.020Z,7.55
2022-11-19T08:38:11.257Z,7.22
2022-11-19T08:41:31.895Z,9.43
2022-11-19T08:44:33.971Z,5.00
2022-11-19T08:47:35.815Z,5.65
2022-11-19T08:50:37.906Z,6.00
2022-11-19T08:53:40.044Z,7.57
2022-11-19T08:56:42.376Z,10.27
2022-11-19T08:59:44.426Z,10.18
2022-11-19T09:02:47.750Z,8.98
2022-11-19T09:05:49.996Z,7.63
2022-11-19T09:08:52.083Z,7.47
2022-11-19T09:11:56.110Z,9.43
2022-11-19T09:14:58.854Z,10.55
2022-11-19T09:18:00.878Z,5.22
2022-11-19T09:21:02.957Z,5.55
2022-11-19T09:24:05.745Z,7.78
2022-11-19T09:27:08.119Z,14.13
2022-11-19T09:30:14.604Z,10.60
2022-11-19T09:33:16.815Z,7.40
2022-11-19T09:36:19.655Z,8.25
2022-11-19T09:39:21.453Z,6.22
2022-11-19T09:42:37.259Z,5.72
2022-11-19T09:45:54.622Z,6.68
2022-11-19T09:49:01.558Z,6.03
2022-11-19T09:52:11.257Z,8.60
2022-11-19T09:55:20.595Z,6.28
2022-11-19T09:58:31.472Z,7.25
2022-11-19T10:01:34.452Z,7.20
2022-11-19T10:04:37.135Z,6.82
2022-11-19T10:08:02.067Z,7.55
2022-11-19T10:11:36.164Z,5.03
2022-11-19T10:15:03.770Z,8.05
2022-11-19T10:18:09.491Z,7.38
2022-11-19T10:21:33.092Z,8.23
2022-11-19T10:24:43.284Z,6.68
2022-11-19T10:27:55.200Z,4.45
2022-11-19T10:31:16.845Z,12.52
2022-11-19T10:34:23.893Z,7.75
2022-11-19T10:37:30.834Z,11.25
2022-11-19T10:40:42.876Z,6.47
2022-11-19T10:43:57.691Z,13.73
2022-11-19T10:47:00.793Z,7.43
2022-11-19T10:50:06.960Z,9.38
2022-11-19T10:53:36.954Z,7.35
2022-11-19T10:56:41.316Z,8.45
2022-11-19T10:59:44.110Z,6.40
2022-11-19T11:02:48.716Z,13.82
2022-11-19T11:06:03.515Z,6.07
2022-11-19T11:09:05.770Z,7.30
2022-11-19T11:12:30.507Z,12.77
2022-11-19T11:15:32.504Z,7.55
2022-11-19T11:18:35.951Z,8.77
2022-11-19T11:21:43.098Z,11.48
2022-11-19T11:24:45.019Z,13.73
2022-11-19T11:27:47.480Z,8.82
2022-11-19T11:31:20.157Z,6.20
2022-11-19T11:34:31.624Z,8.23
2022-11-19T11:37:33.871Z,5.88
2022-11-19T11:40:35.768Z,7.93
2022-11-19T11:43:40.568Z,7.65
2022-11-19T11:47:13.095Z,4.38
2022-11-19T11:50:18.261Z,14.32
2022-11-19T11:53:30.122Z,15.40
2022-11-19T11:56:32.285Z,11.02
2022-11-19T11:59:34.246Z,9.00
2022-11-19T12:02:38.094Z,15.23
2022-11-19T12:05:55.466Z,10.70
2022-11-19T12:09:06.276Z,8.25
2022-11-19T12:12:37.641Z,6.82
2022-11-19T12:15:48.775Z,8.85
2022-11-19T12:19:12.611Z,9.52
2022-11-19T12:22:23.674Z,8.60
2022-11-19T12:25:35.268Z,4.80
2022-11-19T12:28:52.002Z,5.03
2022-11-19T12:32:07.648Z,6.65
2022-11-19T12:35:34.505Z,5.88
2022-11-19T12:38:44.942Z,7.78
2022-11-19T12:42:21.789Z,9.95
2022-11-19T12:45:37.273Z,9.13
2022-11-19T12:49:11.519Z,7.28
2022-11-19T12:52:32.306Z,6.47
2022-11-19T12:55:46.308Z,9.65
2022-11-19T12:58:59.239Z,9.70
2022-11-19T13:02:04.235Z,9.50
2022-11-19T13:05:32.286Z,9.63
2022-11-19T13:08:43.968Z,8.30
2022-11-19T13:11:50.663Z,8.45
2022-11-19T13:14:57.554Z,7.20
2022-11-19T13:18:02.540Z,5.88
2022-11-19T13:21:08.586Z,13.50
2022-11-19T13:24:25.923Z,7.68
2022-11-19T13:27:29.529Z,7.07
2022-11-19T13:30:33.738Z,7.15
2022-11-19T13:33:43.924Z,8.13
2022-11-19T13:36:52.018Z,6.60
2022-11-19T13:40:00.665Z,8.40
2022-11-19T13:43:36.995Z,6.45
2022-11-19T13:46:45.002Z,6.10
2022-11-19T13:50:11.467Z,9.95
2022-11-19T13:53:36.270Z,9.23
2022-11-19T13:56:42.043Z,7.50
2022-11-19T13:59:47.099Z,6.72
2022-11-19T14:03:10.039Z,7.32
2022-11-19T14:06:34.037Z,7.28
2022-11-19T14:10:23.564Z,6.82
2022-11-19T14:13:43.638Z,7.53
2022-11-19T14:17:10.878Z,9.73
2022-11-19T14:20:50.676Z,20.40
2022-11-19T14:24:11.097Z,18.70
2022-11-19T14:27:23.603Z,10.80
2022-11-19T14:31:01.612Z,13.95
2022-11-19T14:34:04.450Z,8.88
2022-11-19T14:37:25.399Z,14.68
2022-11-19T14:40:28.915Z,8.77
2022-11-19T14:43:49.460Z,13.02
2022-11-19T14:46:51.496Z,8.15
2022-11-19T14:49:54.555Z,7.63
2022-11-19T14:52:58.434Z,7.93
2022-11-19T14:56:00.810Z,7.45
2022-11-19T14:59:15.009Z,15.00
2022-11-19T15:02:26.608Z,8.32
2022-11-19T15:05:36.655Z,7.55
2022-11-19T15:08:52.158Z,9.13
2022-11-19T15:11:57.118Z,6.50
2022-11-19T15:15:22.480Z,7.00
2022-11-19T15:18:24.767Z,8.63
2022-11-19T15:21:38.868Z,7.25
2022-11-19T15:25:09.961Z,8.23
2022-11-19T15:28:23.102Z,14.13
2022-11-19T15:31:34.073Z,12.15
2022-11-19T15:35:10.767Z,11.02
2022-11-19T15:38:18.500Z,8.52
2022-11-19T15:41:24.474Z,9.13
2022-11-19T15:44:45.119Z,11.32
2022-11-19T15:47:52.978Z,7.95
2022-11-19T15:50:55.014Z,9.27
2022-11-19T15:54:05.929Z,8.88
2022-11-19T15:57:16.963Z,12.35
2022-11-19T16:00:26.225Z,9.10
2022-11-19T16:03:31.806Z,9.27
2022-11-19T16:06:40.653Z,10.07
2022-11-19T16:09:43.996Z,8.45
2022-11-19T16:13:16.387Z,29.83
2022-11-19T16:16:46.379Z,14.45
2022-11-19T16:20:01.193Z,9.13
2022-11-19T16:23:06.397Z,10.57
2022-11-19T16:26:09.142Z,9.55
2022-11-19T16:29:22.827Z,9.60
2022-11-19T16:32:26.579Z,9.63
2022-11-19T16:35:33.137Z,9.50
2022-11-19T16:38:35.172Z,8.67
2022-11-19T16:41:55.888Z,5.75
2022-11-19T16:45:11.821Z,6.88
2022-11-19T16:48:49.573Z,8.48
2022-11-19T16:51:53.431Z,14.50
2022-11-19T16:54:55.734Z,9.95
2022-11-19T16:58:00.262Z,11.07
2022-11-19T17:01:03.701Z,11.95
2022-11-19T17:04:07.998Z,7.40
2022-11-19T17:07:14.769Z,6.95
2022-11-19T17:10:22.843Z,11.90
2022-11-19T17:13:31.351Z,7.65
2022-11-19T17:16:35.359Z,8.90
2022-11-19T17:19:37.373Z,9.10
2022-11-19T17:22:40.203Z,10.30
2022-11-19T17:26:09.901Z,6.85
2022-11-19T17:29:12.223Z,19.17
2022-11-19T17:32:14.631Z,13.43
2022-11-19T17:35:35.614Z,10.07
2022-11-19T17:38:38.008Z,8.13
2022-11-19T17:41:59.611Z,7.20
2022-11-19T17:45:06.027Z,9.32
2022-11-19T17:48:21.518Z,7.32
2022-11-19T17:51:25.433Z,13.48
2022-11-19T17:54:28.758Z,14.20
2022-11-19T17:57:31.429Z,23.27
2022-11-19T18:00:34.162Z,15.63
2022-11-19T18:03:36.362Z,28.67
2022-11-19T18:06:38.436Z,20.30
2022-11-19T18:09:41.368Z,19.38
2022-11-19T18:12:44.145Z,19.98
2022-11-19T18:15:46.334Z,20.95
2022-11-19T18:18:49.389Z,19.10
2022-11-19T18:21:52.115Z,20.17
2022-11-19T18:24:54.488Z,26.38
2022-11-19T18:27:57.997Z,32.42
2022-11-19T18:31:00.163Z,19.73
2022-11-19T18:34:02.486Z,30.33
2022-11-19T18:37:05.101Z,21.35
2022-11-19T18:40:07.878Z,17.88
2022-11-19T18:43:29.322Z,14.32
2022-11-19T18:46:31.680Z,24.15
2022-11-19T18:49:35.926Z,33.72
2022-11-19T18:52:38.640Z,42.28
2022-11-19T18:55:40.872Z,35.22
2022-11-19T18:58:43.634Z,21.65
2022-11-19T19:01:45.820Z,19.15
2022-11-19T19:04:50.965Z,18.63
2022-11-19T19:07:53.529Z,21.13
2022-11-19T19:11:16.362Z,23.48
2022-11-19T19:14:19.101Z,31.67
2022-11-19T19:17:22.214Z,17.95
2022-11-19T19:20:24.742Z,22.08
2022-11-19T19:23:27.435Z,18.50
2022-11-19T19:26:29.626Z,18.95
2022-11-19T19:29:32.089Z,23.48
2022-11-19T19:32:34.401Z,19.30
2022-11-19T19:35:38.665Z,17.52
2022-11-19T19:38:41.196Z,18.70
2022-11-19T19:41:43.415Z,14.27
2022-11-19T19:44:45.867Z,11.57
2022-11-19T19:47:47.993Z,23.88
2022-11-19T19:50:51.599Z,18.02
2022-11-19T19:53:54.829Z,19.42
2022-11-19T19:56:56.982Z,18.95
2022-11-19T20:00:00.113Z,26.92
2022-11-19T20:03:02.251Z,33.42
2022-11-19T20:06:06.305Z,30.70
2022-11-19T20:09:09.131Z,23.50
2022-11-19T20:12:11.776Z,20.50
2022-11-19T20:15:13.894Z,28.23
2022-11-19T20:18:16.058Z,27.00
2022-11-19T20:21:27.163Z,32.25
2022-11-19T20:24:29.335Z,27.23
2022-11-19T20:27:31.569Z,22.52
2022-11-19T20:30:33.694Z,19.10
2022-11-19T20:33:36.560Z,18.65
2022-11-19T20:36:39.132Z,16.50
2022-11-19T20:39:41.245Z,26.77
2022-11-19T20:43:01.941Z,12.77
2022-11-19T20:46:12.060Z,15.15
2022-11-19T20:49:17.115Z,13.85
2022-11-19T20:52:21.579Z,23.23
2022-11-19T20:55:24.086Z,22.48
2022-11-19T20:58:26.252Z,16.90
2022-11-19T21:01:31.188Z,18.30
2022-11-19T21:04:36.679Z,18.63
2022-11-19T21:07:38.755Z,13.57
2022-11-19T21:10:41.290Z,16.15
2022-11-19T21:13:44.903Z,16.70
2022-11-19T21:16:48.311Z,18.92
2022-11-19T21:19:50.358Z,17.30
2022-11-19T21:22:53.162Z,21.63
2022-11-19T21:26:04.080Z,14.70
2022-11-19T21:29:06.137Z,17.50
2022-11-19T21:32:08.562Z,11.15
2022-11-19T21:35:10.519Z,14.00
2022-11-19T21:38:12.616Z,15.02
2022-11-19T21:41:14.587Z,16.75
2022-11-19T21:44:21.158Z,12.15
2022-11-19T21:47:23.779Z,15.00
2022-11-19T21:50:25.871Z,16.20
2022-11-19T21:53:27.840Z,11.15
2022-11-19T21:56:33.838Z,16.15
2022-11-19T21:59:39.493Z,21.88
2022-11-19T22:02:41.603Z,14.82
2022-11-19T22:05:43.541Z,20.42
2022-11-19T22:08:45.533Z,12.68
2022-11-19T22:11:47.575Z,23.27
2022-11-19T22:14:49.899Z,17.25
2022-11-19T22:17:52.546Z,15.27
2022-11-19T22:21:04.026Z,16.17
2022-11-19T22:24:06.842Z,13.85
2022-11-19T22:27:08.984Z,19.05
2022-11-19T22:30:12.940Z,15.65
2022-11-19T22:33:14.695Z,21.92
2022-11-19T22:36:16.672Z,18.13
2022-11-19T22:39:19.857Z,21.27
2022-11-19T22:42:22.657Z,20.02
2022-11-19T22:45:25.410Z,25.13
2022-11-19T22:48:32.101Z,21.33
2022-11-19T22:51:34.009Z,19.02
2022-11-19T22:54:41.200Z,21.17
2022-11-19T22:57:43.597Z,25.92
2022-11-19T23:00:48.058Z,24.13
2022-11-19T23:03:50.535Z,20.52
2022-11-19T23:06:52.435Z,27.08
2022-11-19T23:09:54.288Z,27.20
2022-11-19T23:13:14.688Z,47.05
2022-11-19T23:16:20.482Z,34.78
2022-11-19T23:19:23.188Z,19.40
2022-11-19T23:22:25.067Z,21.15
2022-11-19T23:25:27.261Z,31.10
2022-11-19T23:28:30.715Z,16.05
2022-11-19T23:31:34.917Z,11.95
2022-11-19T23:34:36.930Z,21.50
2022-11-19T23:37:38.753Z,24.70
2022-11-19T23:40:40.508Z,16.38
2022-11-19T23:43:42.941Z,21.30
2022-11-19T23:46:44.632Z,24.80
2022-11-19T23:49:46.466Z,15.48
2022-11-19T23:52:48.235Z,25.20
2022-11-19T23:55:49.996Z,12.73
2022-11-19T23:58:52.342Z,36.35
